createdAt,value
2023-04-13T00:00:55.843Z,86.04
2023-04-13T00:03:24.507Z,85.97
2023-04-13T00:05:53.774Z,85.14
2023-04-13T00:08:23.015Z,85.87
2023-04-13T00:10:54.381Z,85.50
2023-04-13T00:13:22.461Z,85.21
2023-04-13T00:15:50.477Z,84.63
2023-04-13T00:18:19.114Z,85.31
2023-04-13T00:20:47.143Z,85.90
2023-04-13T00:23:16.497Z,85.42
2023-04-13T00:25:44.750Z,84.60
2023-04-13T00:28:16.640Z,85.16
2023-04-13T00:30:44.754Z,84.37
2023-04-13T00:33:12.978Z,86.04
2023-04-13T00:35:41.709Z,85.61
2023-04-13T00:38:11.587Z,86.29
2023-04-13T00:40:39.654Z,87.05
2023-04-13T00:43:07.692Z,87.24
2023-04-13T00:45:39.050Z,87.30
2023-04-13T00:48:10.675Z,86.47
2023-04-13T00:50:38.888Z,86.36
2023-04-13T00:53:10.616Z,86.72
2023-04-13T00:55:42.541Z,87.36
2023-04-13T00:58:10.763Z,86.75
2023-04-13T01:00:43.205Z,86.17
2023-04-13T01:03:11.866Z,86.55
2023-04-13T01:05:50.522Z,86.45
2023-04-13T01:08:25.823Z,86.79
2023-04-13T01:10:59.871Z,87.38
2023-04-13T01:13:36.065Z,87.89
2023-04-13T01:16:16.695Z,87.16
2023-04-13T01:18:50.100Z,87.13
2023-04-13T01:21:24.309Z,87.75
2023-04-13T01:24:02.933Z,86.72
2023-04-13T01:26:39.194Z,87.10
2023-04-13T01:29:10.203Z,87.60
2023-04-13T01:31:38.992Z,86.78
2023-04-13T01:34:07.296Z,87.11
2023-04-13T01:36:35.703Z,87.21
2023-04-13T01:39:04.412Z,87.18
2023-04-13T01:41:33.456Z,86.70
2023-04-13T01:44:01.938Z,86.90
2023-04-13T01:46:37.837Z,86.55
2023-04-13T01:49:12.130Z,85.70
2023-04-13T01:51:59.889Z,86.77
2023-04-13T01:54:33.816Z,87.07
2023-04-13T01:57:03.338Z,86.03
2023-04-13T01:59:31.656Z,85.61
2023-04-13T02:02:01.505Z,86.09
2023-04-13T02:04:29.616Z,86.20
2023-04-13T02:06:58.915Z,85.55
2023-04-13T02:09:31.465Z,86.41
2023-04-13T02:11:59.727Z,85.47
2023-04-13T02:14:28.303Z,85.33
2023-04-13T02:16:56.402Z,83.91
2023-04-13T02:19:25.842Z,83.11
2023-04-13T02:21:54.183Z,82.77
2023-04-13T02:24:22.188Z,83.66
2023-04-13T02:26:50.972Z,82.22
2023-04-13T02:29:18.984Z,82.07
2023-04-13T02:31:47.181Z,82.05
2023-04-13T02:34:15.360Z,79.64
2023-04-13T02:36:46.495Z,80.20
2023-04-13T02:39:14.519Z,79.70
2023-04-13T02:41:43.367Z,80.49
2023-04-13T02:44:15.970Z,81.05
2023-04-13T02:46:51.383Z,80.78
2023-04-13T02:49:19.684Z,80.25
2023-04-13T02:51:58.808Z,79.47
2023-04-13T02:54:44.471Z,79.91
2023-04-13T02:57:13.467Z,79.79
2023-04-13T02:59:43.297Z,79.65
2023-04-13T03:02:12.661Z,80.64
2023-04-13T03:04:41.238Z,80.25
2023-04-13T03:07:10.787Z,79.84
2023-04-13T03:09:44.719Z,80.48
2023-04-13T03:12:13.343Z,80.76
2023-04-13T03:14:43.965Z,80.23
2023-04-13T03:17:12.736Z,79.48
2023-04-13T03:19:42.725Z,80.23
2023-04-13T03:22:13.142Z,78.74
2023-04-13T03:24:47.309Z,80.23
2023-04-13T03:27:23.203Z,78.88
2023-04-13T03:29:53.266Z,79.41
2023-04-13T03:32:23.917Z,76.63
2023-04-13T03:34:58.991Z,77.96
2023-04-13T03:37:30.451Z,78.02
2023-04-13T03:40:05.205Z,78.78
2023-04-13T03:42:42.065Z,76.79
2023-04-13T03:45:11.322Z,77.12
2023-04-13T03:47:40.944Z,75.27
2023-04-13T03:50:11.323Z,75.15
2023-04-13T03:52:41.865Z,76.48
2023-04-13T03:55:10.792Z,76.21
2023-04-13T03:57:40.987Z,76.48
2023-04-13T04:00:15.890Z,76.16
2023-04-13T04:03:04.460Z,76.13
2023-04-13T04:05:40.453Z,75.16
2023-04-13T04:08:10.103Z,75.66
2023-04-13T04:10:39.256Z,74.87
2023-04-13T04:13:07.386Z,75.20
2023-04-13T04:15:41.806Z,75.44
2023-04-13T04:18:10.561Z,77.46
2023-04-13T04:20:40.745Z,76.92
2023-04-13T04:23:13.880Z,76.15
2023-04-13T04:25:48.003Z,77.07
2023-04-13T04:28:18.213Z,76.25
2023-04-13T04:30:54.041Z,76.54
2023-04-13T04:33:23.688Z,77.04
2023-04-13T04:35:54.102Z,77.24
2023-04-13T04:38:30.507Z,78.27
2023-04-13T04:41:02.500Z,76.09
2023-04-13T04:43:32.217Z,77.36
2023-04-13T04:46:03.217Z,76.54
2023-04-13T04:48:33.066Z,77.73
2023-04-13T04:51:01.194Z,76.80
2023-04-13T04:53:35.525Z,77.30
2023-04-13T04:56:08.382Z,76.62
2023-04-13T04:58:46.362Z,78.87
2023-04-13T05:01:15.279Z,77.80
2023-04-13T05:03:43.938Z,78.29
2023-04-13T05:06:32.588Z,77.14
2023-04-13T05:09:06.015Z,77.51
2023-04-13T05:11:36.788Z,76.97
2023-04-13T05:14:06.998Z,77.36
2023-04-13T05:16:36.059Z,77.64
2023-04-13T05:19:12.728Z,77.60
2023-04-13T05:22:10.009Z,77.96
2023-04-13T05:24:45.968Z,77.15
2023-04-13T05:27:16.560Z,77.58
2023-04-13T05:29:46.887Z,77.05
2023-04-13T05:32:18.454Z,77.13
2023-04-13T05:34:48.411Z,76.38
2023-04-13T05:37:22.693Z,76.79
2023-04-13T05:39:52.105Z,77.16
2023-04-13T05:42:24.994Z,76.21
2023-04-13T05:44:53.266Z,74.96
2023-04-13T05:47:23.398Z,74.46
2023-04-13T05:49:56.188Z,75.10
2023-04-13T05:52:25.551Z,75.65
2023-04-13T05:54:54.821Z,75.61
2023-04-13T05:57:24.485Z,77.02
2023-04-13T05:59:55.411Z,75.18
2023-04-13T06:02:27.376Z,75.64
2023-04-13T06:04:56.528Z,75.87
2023-04-13T06:07:26.077Z,75.86
2023-04-13T06:09:58.207Z,74.06
2023-04-13T06:12:26.631Z,74.62
2023-04-13T06:14:54.665Z,74.09
2023-04-13T06:17:22.601Z,73.71
2023-04-13T06:19:50.506Z,73.72
2023-04-13T06:22:18.390Z,74.08
2023-04-13T06:24:46.254Z,73.80
2023-04-13T06:27:15.564Z,73.64
2023-04-13T06:29:46.765Z,72.56
2023-04-13T06:32:14.945Z,74.73
2023-04-13T06:34:44.580Z,72.83
2023-04-13T06:37:13.051Z,73.24
2023-04-13T06:39:47.271Z,74.48
2023-04-13T06:42:16.825Z,71.79
2023-04-13T06:45:09.196Z,74.61
2023-04-13T06:47:42.045Z,73.30
2023-04-13T06:50:15.575Z,71.05
2023-04-13T06:52:45.465Z,70.12
2023-04-13T06:55:13.779Z,69.14
2023-04-13T06:57:43.761Z,70.87
2023-04-13T07:00:28.151Z,70.94
2023-04-13T07:02:58.471Z,71.17
2023-04-13T07:05:26.748Z,68.87
2023-04-13T07:07:58.292Z,69.71
2023-04-13T07:10:27.313Z,70.80
2023-04-13T07:12:59.353Z,70.13
2023-04-13T07:15:30.480Z,69.54
2023-04-13T07:17:58.807Z,69.12
2023-04-13T07:20:27.780Z,70.20
2023-04-13T07:22:55.701Z,69.21
2023-04-13T07:25:23.950Z,68.16
2023-04-13T07:27:52.328Z,67.84
2023-04-13T07:30:24.048Z,69.13
2023-04-13T07:32:52.156Z,67.76
2023-04-13T07:35:21.594Z,66.70
2023-04-13T07:37:52.833Z,67.26
2023-04-13T07:40:22.884Z,66.59
2023-04-13T07:42:54.541Z,67.58
2023-04-13T07:45:24.853Z,65.91
2023-04-13T07:47:54.700Z,64.43
2023-04-13T07:50:23.081Z,64.87
2023-04-13T07:52:52.280Z,65.86
2023-04-13T07:55:23.237Z,64.62
2023-04-13T07:57:52.677Z,63.46
2023-04-13T08:00:22.892Z,64.33
2023-04-13T08:02:58.321Z,63.27
2023-04-13T08:05:28.437Z,62.75
2023-04-13T08:07:56.876Z,62.38
2023-04-13T08:10:25.854Z,62.10
2023-04-13T08:12:56.043Z,62.89
2023-04-13T08:15:24.856Z,60.88
2023-04-13T08:17:53.874Z,61.06
2023-04-13T08:20:24.182Z,60.13
2023-04-13T08:22:54.139Z,61.51
2023-04-13T08:25:22.577Z,61.11
2023-04-13T08:27:51.029Z,58.62
2023-04-13T08:30:19.863Z,59.97
2023-04-13T08:32:54.663Z,58.81
2023-04-13T08:35:25.806Z,57.17
2023-04-13T08:37:53.960Z,55.42
2023-04-13T08:40:22.733Z,57.82
2023-04-13T08:42:55.327Z,57.17
2023-04-13T08:45:23.418Z,57.19
2023-04-13T08:47:51.584Z,56.71
2023-04-13T08:50:26.294Z,56.49
2023-04-13T08:52:55.923Z,55.03
2023-04-13T08:55:26.418Z,54.96
2023-04-13T08:57:59.411Z,55.69
2023-04-13T09:00:27.565Z,55.07
2023-04-13T09:03:04.892Z,55.34
2023-04-13T09:05:40.250Z,56.00
2023-04-13T09:08:11.669Z,55.68
2023-04-13T09:10:42.261Z,53.27
2023-04-13T09:13:10.446Z,51.50
2023-04-13T09:15:38.884Z,53.00
2023-04-13T09:18:49.877Z,54.30
2023-04-13T09:21:19.348Z,51.39
2023-04-13T09:23:54.718Z,51.36
2023-04-13T09:26:22.787Z,48.75
2023-04-13T09:28:53.229Z,49.89
2023-04-13T09:31:22.570Z,50.39
2023-04-13T09:33:51.989Z,50.10
2023-04-13T09:36:22.881Z,48.72
2023-04-13T09:38:55.182Z,49.54
2023-04-13T09:41:30.922Z,48.77
2023-04-13T09:43:59.344Z,48.02
2023-04-13T09:46:27.522Z,48.42
2023-04-13T09:49:05.095Z,49.72
2023-04-13T09:51:41.993Z,48.31
2023-04-13T09:54:12.044Z,46.37
2023-04-13T09:56:48.109Z,48.04
2023-04-13T09:59:17.220Z,43.63
2023-04-13T10:01:45.792Z,43.30
2023-04-13T10:04:14.131Z,44.66
2023-04-13T10:06:44.869Z,44.26
2023-04-13T10:09:12.969Z,45.62
2023-04-13T10:11:47.425Z,45.97
2023-04-13T10:14:19.029Z,47.18
2023-04-13T10:17:28.200Z,45.46
2023-04-13T10:20:07.813Z,46.74
2023-04-13T10:22:38.603Z,46.41
2023-04-13T10:25:08.062Z,45.10
2023-04-13T10:27:37.419Z,45.73
2023-04-13T10:30:16.008Z,45.43
2023-04-13T10:32:43.979Z,46.68
2023-04-13T10:35:14.322Z,47.09
2023-04-13T10:37:46.077Z,45.13
2023-04-13T10:40:16.262Z,45.55
2023-04-13T10:45:20.389Z,43.11
2023-04-13T10:47:49.043Z,43.71
2023-04-13T10:50:18.478Z,43.85
2023-04-13T10:53:03.017Z,41.37
2023-04-13T10:55:31.624Z,42.11
2023-04-13T10:58:00.664Z,42.89
2023-04-13T11:00:44.814Z,44.15
2023-04-13T11:03:16.777Z,43.05
2023-04-13T11:05:47.157Z,41.61
2023-04-13T11:08:20.581Z,42.25
2023-04-13T11:10:52.538Z,43.51
2023-04-13T11:13:20.965Z,43.32
2023-04-13T11:15:50.589Z,44.18
2023-04-13T11:18:27.094Z,45.16
2023-04-13T11:20:55.508Z,44.84
2023-04-13T11:23:25.402Z,45.08
2023-04-13T11:25:55.158Z,42.57
2023-04-13T11:28:24.140Z,42.73
2023-04-13T11:30:56.420Z,43.32
2023-04-13T11:33:29.948Z,44.16
2023-04-13T11:35:59.006Z,43.72
2023-04-13T11:38:28.893Z,43.48
2023-04-13T11:43:36.105Z,43.54
2023-04-13T11:46:03.980Z,43.21
2023-04-13T11:48:32.636Z,43.95
2023-04-13T11:51:00.994Z,44.70
2023-04-13T11:53:32.169Z,44.22
2023-04-13T11:56:00.212Z,44.04
2023-04-13T11:58:28.274Z,44.01
2023-04-13T12:00:59.898Z,44.16
2023-04-13T12:03:47.023Z,44.02
2023-04-13T12:06:24.462Z,43.23
2023-04-13T12:09:09.354Z,42.68
2023-04-13T12:11:41.982Z,40.92
2023-04-13T12:14:47.643Z,42.60
2023-04-13T12:17:34.780Z,40.44
2023-04-13T12:20:03.841Z,41.75
2023-04-13T12:22:50.893Z,42.68
2023-04-13T12:25:25.401Z,42.81
2023-04-13T12:27:54.747Z,41.92
2023-04-13T12:30:23.993Z,41.20
2023-04-13T12:32:54.117Z,43.36
2023-04-13T12:35:22.230Z,42.24
2023-04-13T12:37:50.228Z,43.67
2023-04-13T12:40:19.243Z,45.33
2023-04-13T12:42:49.590Z,43.79
2023-04-13T12:45:17.643Z,42.32
2023-04-13T12:47:45.634Z,40.39
2023-04-13T12:50:14.058Z,42.91
2023-04-13T12:52:43.665Z,40.53
2023-04-13T12:55:12.243Z,41.80
2023-04-13T12:57:40.565Z,41.66
2023-04-13T13:00:12.195Z,43.63
2023-04-13T13:02:40.208Z,42.33
2023-04-13T13:05:09.304Z,41.16
2023-04-13T13:07:37.246Z,41.59
2023-04-13T13:10:14.933Z,42.68
2023-04-13T13:12:49.884Z,44.28
2023-04-13T13:15:19.201Z,42.79
2023-04-13T13:17:47.129Z,40.51
2023-04-13T13:20:15.409Z,41.72
2023-04-13T13:22:43.574Z,42.56
2023-04-13T13:25:11.618Z,41.38
2023-04-13T13:28:10.209Z,40.42
2023-04-13T13:30:29.965Z,42.45
2023-04-13T13:32:57.909Z,40.17
2023-04-13T13:35:25.805Z,39.78
2023-04-13T13:37:53.686Z,40.16
2023-04-13T13:40:21.505Z,40.45
2023-04-13T13:42:52.304Z,41.96
2023-04-13T13:45:20.966Z,40.43
2023-04-13T13:47:53.216Z,41.24
2023-04-13T13:50:25.218Z,41.31
2023-04-13T13:53:02.392Z,41.65
2023-04-13T13:55:34.394Z,40.05
2023-04-13T13:58:02.435Z,40.87
2023-04-13T14:00:31.137Z,40.21
2023-04-13T14:03:00.829Z,40.18
2023-04-13T14:05:28.811Z,41.27
2023-04-13T14:07:56.663Z,41.07
2023-04-13T14:10:24.496Z,40.01
2023-04-13T14:12:54.605Z,41.83
2023-04-13T14:15:22.740Z,41.09
2023-04-13T14:18:02.418Z,41.03
2023-04-13T14:20:39.989Z,42.72
2023-04-13T14:23:09.722Z,39.84
2023-04-13T14:25:38.905Z,40.96
2023-04-13T14:28:08.969Z,43.58
2023-04-13T14:30:36.891Z,43.70
2023-04-13T14:33:05.767Z,40.92
2023-04-13T14:35:34.333Z,41.48
2023-04-13T14:38:03.749Z,42.77
2023-04-13T14:40:31.865Z,42.85
2023-04-13T14:42:59.794Z,42.81
2023-04-13T14:45:28.597Z,41.69
2023-04-13T14:47:56.477Z,43.12
2023-04-13T14:50:24.341Z,42.01
2023-04-13T14:52:52.447Z,42.23
2023-04-13T14:55:22.840Z,41.73
2023-04-13T14:57:51.107Z,42.27
2023-04-13T15:00:22.445Z,41.91
2023-04-13T15:02:52.474Z,40.45
2023-04-13T15:05:21.235Z,43.06
2023-04-13T15:07:50.764Z,41.42
2023-04-13T15:10:19.160Z,43.32
2023-04-13T15:12:49.011Z,42.09
2023-04-13T15:15:16.998Z,42.27
2023-04-13T15:17:44.982Z,41.28
2023-04-13T15:20:12.964Z,40.61
2023-04-13T15:22:40.793Z,41.33
2023-04-13T15:25:09.160Z,42.09
2023-04-13T15:27:37.142Z,43.01
2023-04-13T15:30:08.151Z,42.57
2023-04-13T15:32:36.310Z,42.67
2023-04-13T15:35:04.624Z,42.55
2023-04-13T15:37:32.497Z,41.44
2023-04-13T15:40:00.846Z,41.96
2023-04-13T15:42:28.689Z,40.84
2023-04-13T15:44:56.503Z,41.09
2023-04-13T15:47:25.726Z,41.32
2023-04-13T15:49:53.598Z,41.78
2023-04-13T15:52:21.433Z,43.15
2023-04-13T15:54:49.242Z,42.66
2023-04-13T15:57:17.488Z,43.22
2023-04-13T15:59:45.737Z,41.93
2023-04-13T16:02:13.772Z,42.71
2023-04-13T16:04:43.104Z,42.72
2023-04-13T16:07:14.105Z,41.90
2023-04-13T16:09:44.776Z,43.28
2023-04-13T16:12:12.914Z,43.81
2023-04-13T16:14:42.048Z,43.84
2023-04-13T16:17:10.357Z,42.61
2023-04-13T16:19:39.634Z,44.12
2023-04-13T16:22:10.918Z,43.15
2023-04-13T16:24:38.852Z,43.17
2023-04-13T16:27:07.321Z,43.23
2023-04-13T16:29:35.191Z,43.50
2023-04-13T16:32:03.142Z,42.73
2023-04-13T16:34:30.980Z,44.34
2023-04-13T16:36:58.888Z,43.35
2023-04-13T16:39:28.152Z,42.85
2023-04-13T16:41:56.032Z,43.06
2023-04-13T16:44:23.874Z,43.65
2023-04-13T16:46:51.811Z,44.11
2023-04-13T16:49:19.710Z,44.63
2023-04-13T16:51:48.476Z,43.87
2023-04-13T16:54:17.862Z,43.76
2023-04-13T16:56:47.173Z,43.67
2023-04-13T16:59:15.023Z,43.97
2023-04-13T17:01:42.841Z,44.52
2023-04-13T17:04:10.823Z,44.17
2023-04-13T17:06:39.645Z,44.23
2023-04-13T17:09:07.926Z,44.73
2023-04-13T17:11:36.023Z,43.87
2023-04-13T17:14:05.238Z,44.91
2023-04-13T17:16:33.164Z,44.52
2023-04-13T17:19:01.612Z,45.15
2023-04-13T17:21:29.787Z,44.55
2023-04-13T17:23:57.634Z,46.08
2023-04-13T17:26:25.456Z,45.51
2023-04-13T17:28:53.326Z,45.14
2023-04-13T17:31:22.574Z,45.79
2023-04-13T17:33:51.124Z,45.61
2023-04-13T17:36:19.403Z,45.05
2023-04-13T17:38:47.322Z,46.03
2023-04-13T17:41:15.305Z,46.43
2023-04-13T17:43:43.181Z,46.50
2023-04-13T17:46:12.426Z,46.38
2023-04-13T17:48:42.022Z,46.55
2023-04-13T17:51:11.673Z,47.62
2023-04-13T17:53:39.976Z,46.19
2023-04-13T17:56:09.190Z,47.66
2023-04-13T17:58:36.991Z,47.89
2023-04-13T18:01:09.192Z,48.71
2023-04-13T18:03:37.489Z,47.67
2023-04-13T18:06:07.059Z,51.17
2023-04-13T18:08:34.882Z,47.88
2023-04-13T18:11:02.815Z,49.82
2023-04-13T18:13:31.454Z,49.17
2023-04-13T18:15:59.516Z,48.70
2023-04-13T18:18:27.490Z,49.62
2023-04-13T18:20:55.641Z,47.88
2023-04-13T18:23:25.154Z,52.35
2023-04-13T18:25:53.165Z,51.63
2023-04-13T18:28:21.076Z,52.36
2023-04-13T18:30:48.941Z,51.92
2023-04-13T18:33:16.790Z,50.43
2023-04-13T18:35:45.768Z,51.04
2023-04-13T18:38:13.791Z,50.22
2023-04-13T18:40:43.288Z,52.05
2023-04-13T18:43:11.112Z,53.23
2023-04-13T18:45:39.051Z,53.33
2023-04-13T18:48:09.356Z,56.24
2023-04-13T18:50:37.597Z,56.06
2023-04-13T18:53:05.811Z,55.88
2023-04-13T18:55:33.827Z,55.40
2023-04-13T18:58:03.029Z,54.74
2023-04-13T19:00:32.286Z,54.35
2023-04-13T19:03:01.105Z,56.47
2023-04-13T19:05:29.220Z,56.20
2023-04-13T19:07:58.942Z,56.48
2023-04-13T19:10:27.992Z,58.79
2023-04-13T19:12:56.542Z,56.16
2023-04-13T19:15:25.932Z,55.62
2023-04-13T19:17:54.105Z,55.06
2023-04-13T19:20:24.025Z,54.94
2023-04-13T19:22:52.473Z,57.15
2023-04-13T19:25:20.619Z,57.00
2023-04-13T19:27:50.095Z,59.23
2023-04-13T19:30:19.621Z,57.76
2023-04-13T19:32:50.959Z,57.97
2023-04-13T19:35:21.517Z,58.38
2023-04-13T19:37:49.381Z,56.90
2023-04-13T19:40:17.858Z,57.55
2023-04-13T19:42:47.064Z,59.49
2023-04-13T19:45:15.668Z,58.16
2023-04-13T19:47:43.694Z,55.96
2023-04-13T19:50:14.370Z,58.55
2023-04-13T19:52:42.878Z,57.52
2023-04-13T19:55:12.051Z,57.23
2023-04-13T19:57:42.815Z,58.27
2023-04-13T20:00:19.115Z,58.43
2023-04-13T20:02:49.570Z,59.63
2023-04-13T20:05:21.143Z,57.97
2023-04-13T20:07:50.368Z,56.27
2023-04-13T20:10:18.375Z,58.10
2023-04-13T20:12:46.229Z,59.73
2023-04-13T20:15:14.827Z,59.37
2023-04-13T20:17:42.716Z,60.67
2023-04-13T20:20:11.162Z,58.51
2023-04-13T20:22:40.499Z,58.88
2023-04-13T20:25:09.198Z,57.78
2023-04-13T20:27:41.701Z,59.13
2023-04-13T20:30:10.947Z,60.17
2023-04-13T20:32:39.148Z,59.66
2023-04-13T20:35:08.118Z,60.67
2023-04-13T20:37:36.300Z,60.33
2023-04-13T20:40:07.101Z,60.74
2023-04-13T20:42:35.052Z,58.79
2023-04-13T20:45:04.868Z,61.91
2023-04-13T20:47:35.580Z,60.95
2023-04-13T20:50:04.834Z,60.48
2023-04-13T20:52:32.650Z,62.25
2023-04-13T20:55:00.514Z,63.80
2023-04-13T20:57:30.386Z,62.02
2023-04-13T20:59:58.310Z,60.90
2023-04-13T21:02:26.656Z,61.82
2023-04-13T21:04:56.542Z,60.66
2023-04-13T21:07:24.472Z,62.22
2023-04-13T21:09:52.406Z,60.94
2023-04-13T21:12:20.285Z,59.96
2023-04-13T21:14:49.599Z,60.21
2023-04-13T21:17:17.468Z,61.48
2023-04-13T21:19:45.320Z,61.87
2023-04-13T21:22:13.167Z,62.29
2023-04-13T21:24:41.450Z,60.78
2023-04-13T21:27:09.278Z,61.22
2023-04-13T21:29:37.182Z,62.45
2023-04-13T21:32:06.536Z,63.12
2023-04-13T21:34:34.587Z,62.15
2023-04-13T21:37:03.241Z,61.25
2023-04-13T21:39:31.219Z,61.73
2023-04-13T21:41:59.062Z,61.28
2023-04-13T21:44:29.725Z,62.63
2023-04-13T21:46:58.411Z,62.95
2023-04-13T21:49:27.732Z,62.63
2023-04-13T21:51:55.604Z,62.34
2023-04-13T21:54:23.458Z,62.79
2023-04-13T21:56:51.379Z,62.73
2023-04-13T21:59:19.291Z,62.37
2023-04-13T22:01:47.391Z,62.30
2023-04-13T22:04:15.438Z,62.29
2023-04-13T22:06:44.710Z,62.61
2023-04-13T22:09:13.363Z,63.21
2023-04-13T22:11:41.427Z,63.75
2023-04-13T22:14:09.562Z,63.12
2023-04-13T22:16:37.415Z,63.39
2023-04-13T22:19:05.396Z,63.56
2023-04-13T22:21:35.644Z,65.31
2023-04-13T22:24:05.024Z,64.94
2023-04-13T22:26:32.891Z,64.07
2023-04-13T22:29:00.833Z,63.11
2023-04-13T22:31:28.910Z,62.95
2023-04-13T22:33:57.180Z,63.89
2023-04-13T22:36:25.107Z,64.13
2023-04-13T22:38:52.943Z,66.11
2023-04-13T22:41:22.186Z,64.15
2023-04-13T22:43:50.110Z,64.48
2023-04-13T22:46:18.568Z,65.81
2023-04-13T22:48:46.502Z,65.10
2023-04-13T22:51:14.330Z,66.04
2023-04-13T22:53:42.185Z,64.72
2023-04-13T22:56:10.079Z,64.80
2023-04-13T22:58:39.255Z,65.85
2023-04-13T23:01:07.075Z,64.29
2023-04-13T23:03:34.964Z,65.31
2023-04-13T23:06:05.385Z,64.22
2023-04-13T23:08:33.253Z,64.02
2023-04-13T23:11:08.017Z,66.18
2023-04-13T23:13:36.699Z,64.94
2023-04-13T23:16:06.944Z,65.36
2023-04-13T23:18:34.884Z,63.67
2023-04-13T23:21:10.096Z,64.37
2023-04-13T23:23:38.051Z,63.93
2023-04-13T23:26:06.735Z,64.21
2023-04-13T23:28:34.677Z,64.27
2023-04-13T23:31:08.314Z,63.60
2023-04-13T23:33:36.716Z,63.88
2023-04-13T23:36:05.026Z,63.61
2023-04-13T23:38:33.626Z,64.54
2023-04-13T23:41:01.587Z,66.36
2023-04-13T23:43:29.575Z,65.87
2023-04-13T23:45:58.969Z,63.79
2023-04-13T23:48:28.357Z,65.23
2023-04-13T23:50:57.245Z,63.57
2023-04-13T23:53:25.160Z,62.70
2023-04-13T23:55:53.014Z,62.60
2023-04-13T23:58:20.884Z,63.58
